sensor_id;sensor_type;location;lat;lon;timestamp;P1;durP1;ratioP1;P2;durP2;ratioP2
70780;SDS011;59514;48.810;2.134;2022-12-05T00:00:05;26.75;;;19.58;;
70780;SDS011;59514;48.810;2.134;2022-12-05T00:02:32;27.80;;;18.45;;
70780;SDS011;59514;48.810;2.134;2022-12-05T00:04:57;28.67;;;19.65;;
70780;SDS011;59514;48.810;2.134;2022-12-05T00:07:23;28.35;;;19.40;;
70780;SDS011;59514;48.810;2.134;2022-12-05T00:09:48;27.20;;;18.95;;
70780;SDS011;59514;48.810;2.134;2022-12-05T00:12:14;27.75;;;19.75;;
70780;SDS011;59514;48.810;2.134;2022-12-05T00:14:40;27.20;;;18.48;;
70780;SDS011;59514;48.810;2.134;2022-12-05T00:17:05;27.50;;;18.80;;
70780;SDS011;59514;48.810;2.134;2022-12-05T00:19:30;26.60;;;18.70;;
70780;SDS011;59514;48.810;2.134;2022-12-05T00:21:56;30.25;;;20.08;;
70780;SDS011;59514;48.810;2.134;2022-12-05T00:24:21;26.55;;;18.17;;
70780;SDS011;59514;48.810;2.134;2022-12-05T00:26:47;27.40;;;19.05;;
70780;SDS011;59514;48.810;2.134;2022-12-05T00:29:12;31.02;;;20.02;;
70780;SDS011;59514;48.810;2.134;2022-12-05T00:31:37;29.92;;;20.17;;
70780;SDS011;59514;48.810;2.134;2022-12-05T00:34:03;26.85;;;18.83;;
70780;SDS011;59514;48.810;2.134;2022-12-05T00:36:30;29.15;;;19.73;;
70780;SDS011;59514;48.810;2.134;2022-12-05T00:38:58;26.85;;;18.38;;
70780;SDS011;59514;48.810;2.134;2022-12-05T00:41:25;29.15;;;20.08;;
70780;SDS011;59514;48.810;2.134;2022-12-05T00:43:51;29.27;;;19.48;;
70780;SDS011;59514;48.810;2.134;2022-12-05T00:46:18;28.73;;;19.17;;
70780;SDS011;59514;48.810;2.134;2022-12-05T00:48:46;26.35;;;19.05;;
70780;SDS011;59514;48.810;2.134;2022-12-05T00:51:16;27.02;;;18.00;;
70780;SDS011;59514;48.810;2.134;2022-12-05T00:53:44;27.88;;;18.60;;
70780;SDS011;59514;48.810;2.134;2022-12-05T00:56:11;28.92;;;18.92;;
70780;SDS011;59514;48.810;2.134;2022-12-05T00:58:38;27.92;;;18.70;;
70780;SDS011;59514;48.810;2.134;2022-12-05T01:01:15;26.98;;;19.25;;
70780;SDS011;59514;48.810;2.134;2022-12-05T01:03:45;27.13;;;19.08;;
70780;SDS011;59514;48.810;2.134;2022-12-05T01:06:12;31.02;;;20.05;;
70780;SDS011;59514;48.810;2.134;2022-12-05T01:08:38;28.58;;;18.95;;
70780;SDS011;59514;48.810;2.134;2022-12-05T01:11:04;28.08;;;18.48;;
70780;SDS011;59514;48.810;2.134;2022-12-05T01:13:30;28.02;;;19.63;;
70780;SDS011;59514;48.810;2.134;2022-12-05T01:15:57;27.95;;;18.55;;
70780;SDS011;59514;48.810;2.134;2022-12-05T01:18:22;24.95;;;16.88;;
70780;SDS011;59514;48.810;2.134;2022-12-05T01:20:48;28.85;;;19.08;;
70780;SDS011;59514;48.810;2.134;2022-12-05T01:23:14;26.05;;;17.58;;
70780;SDS011;59514;48.810;2.134;2022-12-05T01:25:40;25.95;;;18.08;;
70780;SDS011;59514;48.810;2.134;2022-12-05T01:28:07;25.23;;;17.25;;
70780;SDS011;59514;48.810;2.134;2022-12-05T01:30:36;24.17;;;18.02;;
70780;SDS011;59514;48.810;2.134;2022-12-05T01:33:06;26.27;;;17.52;;
70780;SDS011;59514;48.810;2.134;2022-12-05T01:35:33;27.73;;;17.98;;
70780;SDS011;59514;48.810;2.134;2022-12-05T01:38:00;29.48;;;17.95;;
70780;SDS011;59514;48.810;2.134;2022-12-05T01:40:25;26.02;;;17.27;;
70780;SDS011;59514;48.810;2.134;2022-12-05T01:42:51;25.27;;;17.23;;
70780;SDS011;59514;48.810;2.134;2022-12-05T01:45:30;24.10;;;16.70;;
70780;SDS011;59514;48.810;2.134;2022-12-05T01:47:59;24.70;;;17.75;;
70780;SDS011;59514;48.810;2.134;2022-12-05T01:50:27;24.98;;;17.75;;
70780;SDS011;59514;48.810;2.134;2022-12-05T01:52:53;23.30;;;17.58;;
70780;SDS011;59514;48.810;2.134;2022-12-05T01:55:18;27.10;;;18.00;;
70780;SDS011;59514;48.810;2.134;2022-12-05T01:57:44;29.25;;;18.42;;
70780;SDS011;59514;48.810;2.134;2022-12-05T02:00:13;25.58;;;18.48;;
70780;SDS011;59514;48.810;2.134;2022-12-05T02:02:42;27.50;;;18.10;;
70780;SDS011;59514;48.810;2.134;2022-12-05T02:05:16;25.48;;;17.77;;
70780;SDS011;59514;48.810;2.134;2022-12-05T02:07:45;27.77;;;18.13;;
70780;SDS011;59514;48.810;2.134;2022-12-05T02:10:11;26.27;;;18.17;;
70780;SDS011;59514;48.810;2.134;2022-12-05T02:12:38;26.85;;;19.67;;
70780;SDS011;59514;48.810;2.134;2022-12-05T02:17:53;24.65;;;17.85;;
70780;SDS011;59514;48.810;2.134;2022-12-05T02:31:26;25.38;;;17.77;;
70780;SDS011;59514;48.810;2.134;2022-12-05T02:34:03;27.35;;;18.77;;
70780;SDS011;59514;48.810;2.134;2022-12-05T02:36:46;23.80;;;18.30;;
70780;SDS011;59514;48.810;2.134;2022-12-05T02:44:11;29.05;;;20.95;;
70780;SDS011;59514;48.810;2.134;2022-12-05T02:46:37;33.05;;;22.67;;
70780;SDS011;59514;48.810;2.134;2022-12-05T02:49:06;30.88;;;21.27;;
70780;SDS011;59514;48.810;2.134;2022-12-05T02:51:34;29.65;;;22.00;;
70780;SDS011;59514;48.810;2.134;2022-12-05T02:54:06;29.23;;;22.13;;
70780;SDS011;59514;48.810;2.134;2022-12-05T02:56:35;32.10;;;22.25;;
70780;SDS011;59514;48.810;2.134;2022-12-05T02:59:02;30.20;;;22.02;;
70780;SDS011;59514;48.810;2.134;2022-12-05T03:01:28;31.52;;;21.20;;
70780;SDS011;59514;48.810;2.134;2022-12-05T03:03:55;31.27;;;21.48;;
70780;SDS011;59514;48.810;2.134;2022-12-05T03:06:25;30.25;;;21.50;;
70780;SDS011;59514;48.810;2.134;2022-12-05T03:08:54;27.45;;;19.85;;
70780;SDS011;59514;48.810;2.134;2022-12-05T03:11:27;27.10;;;20.42;;
70780;SDS011;59514;48.810;2.134;2022-12-05T03:13:57;29.17;;;20.17;;
70780;SDS011;59514;48.810;2.134;2022-12-05T03:16:36;27.63;;;19.95;;
70780;SDS011;59514;48.810;2.134;2022-12-05T03:19:08;27.67;;;18.98;;
70780;SDS011;59514;48.810;2.134;2022-12-05T03:21:39;26.30;;;18.75;;
70780;SDS011;59514;48.810;2.134;2022-12-05T03:24:13;27.10;;;19.73;;
70780;SDS011;59514;48.810;2.134;2022-12-05T03:26:52;27.95;;;19.67;;
70780;SDS011;59514;48.810;2.134;2022-12-05T03:32:10;30.70;;;20.52;;
70780;SDS011;59514;48.810;2.134;2022-12-05T03:37:26;32.67;;;21.23;;
70780;SDS011;59514;48.810;2.134;2022-12-05T03:39:59;32.70;;;21.90;;
70780;SDS011;59514;48.810;2.134;2022-12-05T03:42:51;38.67;;;23.70;;
70780;SDS011;59514;48.810;2.134;2022-12-05T03:45:41;33.47;;;23.65;;
70780;SDS011;59514;48.810;2.134;2022-12-05T03:50:59;35.38;;;23.63;;
70780;SDS011;59514;48.810;2.134;2022-12-05T03:53:31;32.40;;;22.67;;
70780;SDS011;59514;48.810;2.134;2022-12-05T03:56:09;31.48;;;22.50;;
70780;SDS011;59514;48.810;2.134;2022-12-05T04:01:38;33.22;;;22.58;;
70780;SDS011;59514;48.810;2.134;2022-12-05T04:04:16;32.60;;;23.92;;
70780;SDS011;59514;48.810;2.134;2022-12-05T04:06:46;36.08;;;24.05;;
70780;SDS011;59514;48.810;2.134;2022-12-05T04:09:20;35.20;;;25.05;;
70780;SDS011;59514;48.810;2.134;2022-12-05T04:11:52;35.85;;;24.33;;
70780;SDS011;59514;48.810;2.134;2022-12-05T04:14:23;36.30;;;24.80;;
70780;SDS011;59514;48.810;2.134;2022-12-05T04:19:55;36.05;;;22.95;;
70780;SDS011;59514;48.810;2.134;2022-12-05T04:22:44;35.67;;;23.60;;
70780;SDS011;59514;48.810;2.134;2022-12-05T04:25:11;35.88;;;24.98;;
70780;SDS011;59514;48.810;2.134;2022-12-05T04:30:33;36.38;;;23.83;;
70780;SDS011;59514;48.810;2.134;2022-12-05T04:33:11;35.25;;;24.38;;
70780;SDS011;59514;48.810;2.134;2022-12-05T04:36:49;36.10;;;24.73;;
70780;SDS011;59514;48.810;2.134;2022-12-05T04:38:58;37.83;;;24.40;;
70780;SDS011;59514;48.810;2.134;2022-12-05T04:41:39;38.35;;;24.92;;
70780;SDS011;59514;48.810;2.134;2022-12-05T04:44:11;35.25;;;23.80;;
70780;SDS011;59514;48.810;2.134;2022-12-05T04:46:42;38.53;;;24.90;;
70780;SDS011;59514;48.810;2.134;2022-12-05T04:49:10;38.17;;;24.80;;
70780;SDS011;59514;48.810;2.134;2022-12-05T04:51:40;36.92;;;24.63;;
70780;SDS011;59514;48.810;2.134;2022-12-05T04:54:27;36.45;;;24.20;;
70780;SDS011;59514;48.810;2.134;2022-12-05T04:57:10;34.78;;;24.48;;
70780;SDS011;59514;48.810;2.134;2022-12-05T04:59:39;35.08;;;23.95;;
70780;SDS011;59514;48.810;2.134;2022-12-05T05:02:08;36.92;;;23.80;;
70780;SDS011;59514;48.810;2.134;2022-12-05T05:04:40;36.30;;;25.23;;
70780;SDS011;59514;48.810;2.134;2022-12-05T05:07:10;39.15;;;26.20;;
70780;SDS011;59514;48.810;2.134;2022-12-05T05:09:37;39.00;;;25.85;;
70780;SDS011;59514;48.810;2.134;2022-12-05T05:12:04;38.58;;;25.25;;
70780;SDS011;59514;48.810;2.134;2022-12-05T05:14:29;35.88;;;24.30;;
70780;SDS011;59514;48.810;2.134;2022-12-05T05:16:55;35.35;;;24.27;;
70780;SDS011;59514;48.810;2.134;2022-12-05T05:19:21;38.78;;;25.67;;
70780;SDS011;59514;48.810;2.134;2022-12-05T05:21:47;37.85;;;24.08;;
70780;SDS011;59514;48.810;2.134;2022-12-05T05:24:13;36.65;;;23.90;;
70780;SDS011;59514;48.810;2.134;2022-12-05T05:26:40;35.20;;;23.33;;
70780;SDS011;59514;48.810;2.134;2022-12-05T05:29:07;34.03;;;22.15;;
70780;SDS011;59514;48.810;2.134;2022-12-05T05:31:34;34.25;;;21.95;;
70780;SDS011;59514;48.810;2.134;2022-12-05T05:34:00;35.92;;;22.98;;
70780;SDS011;59514;48.810;2.134;2022-12-05T05:36:27;35.17;;;22.63;;
70780;SDS011;59514;48.810;2.134;2022-12-05T05:38:53;34.55;;;23.10;;
70780;SDS011;59514;48.810;2.134;2022-12-05T05:41:21;35.75;;;22.35;;
70780;SDS011;59514;48.810;2.134;2022-12-05T05:43:54;34.80;;;23.23;;
70780;SDS011;59514;48.810;2.134;2022-12-05T05:46:21;32.70;;;22.95;;
70780;SDS011;59514;48.810;2.134;2022-12-05T05:48:48;35.20;;;22.85;;
70780;SDS011;59514;48.810;2.134;2022-12-05T05:51:15;32.83;;;21.73;;
70780;SDS011;59514;48.810;2.134;2022-12-05T05:53:41;33.30;;;22.23;;
70780;SDS011;59514;48.810;2.134;2022-12-05T05:56:07;33.28;;;21.60;;
70780;SDS011;59514;48.810;2.134;2022-12-05T05:58:34;35.97;;;23.52;;
70780;SDS011;59514;48.810;2.134;2022-12-05T06:03:39;33.17;;;21.98;;
70780;SDS011;59514;48.810;2.134;2022-12-05T06:06:06;33.53;;;21.02;;
70780;SDS011;59514;48.810;2.134;2022-12-05T06:08:35;31.13;;;21.27;;
70780;SDS011;59514;48.810;2.134;2022-12-05T06:11:07;31.67;;;21.05;;
70780;SDS011;59514;48.810;2.134;2022-12-05T06:13:34;33.30;;;21.40;;
70780;SDS011;59514;48.810;2.134;2022-12-05T06:15:59;31.00;;;20.63;;
70780;SDS011;59514;48.810;2.134;2022-12-05T06:18:25;29.02;;;19.60;;
70780;SDS011;59514;48.810;2.134;2022-12-05T06:20:54;32.95;;;21.15;;
70780;SDS011;59514;48.810;2.134;2022-12-05T06:23:21;31.00;;;20.40;;
70780;SDS011;59514;48.810;2.134;2022-12-05T06:25:47;34.05;;;21.50;;
70780;SDS011;59514;48.810;2.134;2022-12-05T06:28:13;33.25;;;21.25;;
70780;SDS011;59514;48.810;2.134;2022-12-05T06:30:39;31.35;;;20.83;;
70780;SDS011;59514;48.810;2.134;2022-12-05T06:33:04;33.05;;;21.85;;
70780;SDS011;59514;48.810;2.134;2022-12-05T06:35:29;31.33;;;20.08;;
70780;SDS011;59514;48.810;2.134;2022-12-05T06:37:55;31.55;;;20.50;;
70780;SDS011;59514;48.810;2.134;2022-12-05T06:40:20;33.47;;;21.38;;
70780;SDS011;59514;48.810;2.134;2022-12-05T06:42:46;32.92;;;20.77;;
70780;SDS011;59514;48.810;2.134;2022-12-05T06:45:11;32.20;;;20.50;;
70780;SDS011;59514;48.810;2.134;2022-12-05T06:47:36;33.67;;;21.80;;
70780;SDS011;59514;48.810;2.134;2022-12-05T06:50:02;32.92;;;20.65;;
70780;SDS011;59514;48.810;2.134;2022-12-05T06:52:28;32.85;;;20.27;;
70780;SDS011;59514;48.810;2.134;2022-12-05T06:54:53;31.35;;;21.33;;
70780;SDS011;59514;48.810;2.134;2022-12-05T06:57:18;29.30;;;19.98;;
70780;SDS011;59514;48.810;2.134;2022-12-05T06:59:44;32.13;;;20.98;;
70780;SDS011;59514;48.810;2.134;2022-12-05T07:02:10;33.80;;;21.60;;
70780;SDS011;59514;48.810;2.134;2022-12-05T07:04:36;35.33;;;22.23;;
70780;SDS011;59514;48.810;2.134;2022-12-05T07:07:02;29.20;;;20.52;;
70780;SDS011;59514;48.810;2.134;2022-12-05T07:09:27;30.77;;;21.00;;
70780;SDS011;59514;48.810;2.134;2022-12-05T07:12:12;28.50;;;19.60;;
70780;SDS011;59514;48.810;2.134;2022-12-05T07:14:38;26.80;;;19.45;;
70780;SDS011;59514;48.810;2.134;2022-12-05T07:17:04;28.85;;;20.50;;
70780;SDS011;59514;48.810;2.134;2022-12-05T07:19:29;28.55;;;20.15;;
70780;SDS011;59514;48.810;2.134;2022-12-05T07:21:55;28.75;;;20.90;;
70780;SDS011;59514;48.810;2.134;2022-12-05T07:24:20;31.15;;;22.10;;
70780;SDS011;59514;48.810;2.134;2022-12-05T07:26:45;30.80;;;19.58;;
70780;SDS011;59514;48.810;2.134;2022-12-05T07:29:11;29.58;;;19.98;;
70780;SDS011;59514;48.810;2.134;2022-12-05T07:31:36;27.88;;;18.90;;
70780;SDS011;59514;48.810;2.134;2022-12-05T07:34:01;26.05;;;18.75;;
70780;SDS011;59514;48.810;2.134;2022-12-05T07:36:27;28.33;;;19.33;;
70780;SDS011;59514;48.810;2.134;2022-12-05T07:38:53;29.75;;;20.73;;
70780;SDS011;59514;48.810;2.134;2022-12-05T07:41:21;30.17;;;20.35;;
70780;SDS011;59514;48.810;2.134;2022-12-05T07:43:52;27.73;;;19.70;;
70780;SDS011;59514;48.810;2.134;2022-12-05T07:46:18;30.63;;;20.02;;
70780;SDS011;59514;48.810;2.134;2022-12-05T07:48:44;25.05;;;19.25;;
70780;SDS011;59514;48.810;2.134;2022-12-05T07:51:12;29.80;;;20.65;;
70780;SDS011;59514;48.810;2.134;2022-12-05T07:53:37;30.00;;;21.10;;
70780;SDS011;59514;48.810;2.134;2022-12-05T07:56:04;27.58;;;20.30;;
70780;SDS011;59514;48.810;2.134;2022-12-05T07:58:31;30.05;;;21.75;;
70780;SDS011;59514;48.810;2.134;2022-12-05T08:01:04;29.40;;;20.92;;
70780;SDS011;59514;48.810;2.134;2022-12-05T08:03:30;29.13;;;20.33;;
70780;SDS011;59514;48.810;2.134;2022-12-05T08:05:59;31.35;;;20.60;;
70780;SDS011;59514;48.810;2.134;2022-12-05T08:08:26;29.80;;;20.98;;
70780;SDS011;59514;48.810;2.134;2022-12-05T08:10:51;29.15;;;20.63;;
70780;SDS011;59514;48.810;2.134;2022-12-05T08:13:16;28.45;;;20.85;;
70780;SDS011;59514;48.810;2.134;2022-12-05T08:15:41;31.67;;;21.27;;
70780;SDS011;59514;48.810;2.134;2022-12-05T08:18:07;30.50;;;21.08;;
70780;SDS011;59514;48.810;2.134;2022-12-05T08:20:32;33.38;;;21.83;;
70780;SDS011;59514;48.810;2.134;2022-12-05T08:22:57;28.48;;;20.45;;
70780;SDS011;59514;48.810;2.134;2022-12-05T08:25:23;29.83;;;22.05;;
70780;SDS011;59514;48.810;2.134;2022-12-05T08:27:48;30.42;;;21.92;;
70780;SDS011;59514;48.810;2.134;2022-12-05T08:30:13;30.80;;;22.02;;
70780;SDS011;59514;48.810;2.134;2022-12-05T08:32:39;31.05;;;21.38;;
70780;SDS011;59514;48.810;2.134;2022-12-05T08:35:04;33.15;;;21.30;;
70780;SDS011;59514;48.810;2.134;2022-12-05T08:37:29;31.42;;;21.60;;
70780;SDS011;59514;48.810;2.134;2022-12-05T08:39:55;35.00;;;23.05;;
70780;SDS011;59514;48.810;2.134;2022-12-05T08:42:20;33.67;;;22.98;;
70780;SDS011;59514;48.810;2.134;2022-12-05T08:44:45;35.20;;;24.17;;
70780;SDS011;59514;48.810;2.134;2022-12-05T08:47:11;33.17;;;22.67;;
70780;SDS011;59514;48.810;2.134;2022-12-05T08:49:36;35.25;;;23.80;;
70780;SDS011;59514;48.810;2.134;2022-12-05T08:52:01;35.40;;;23.02;;
70780;SDS011;59514;48.810;2.134;2022-12-05T08:54:27;35.08;;;23.67;;
70780;SDS011;59514;48.810;2.134;2022-12-05T08:56:52;32.03;;;22.63;;
70780;SDS011;59514;48.810;2.134;2022-12-05T08:59:18;37.72;;;24.08;;
70780;SDS011;59514;48.810;2.134;2022-12-05T09:01:43;35.97;;;23.80;;
70780;SDS011;59514;48.810;2.134;2022-12-05T09:04:09;36.20;;;24.40;;
70780;SDS011;59514;48.810;2.134;2022-12-05T09:06:36;35.35;;;23.17;;
70780;SDS011;59514;48.810;2.134;2022-12-05T09:09:04;36.33;;;23.52;;
70780;SDS011;59514;48.810;2.134;2022-12-05T09:11:33;33.80;;;23.23;;
70780;SDS011;59514;48.810;2.134;2022-12-05T09:14:00;35.95;;;24.55;;
70780;SDS011;59514;48.810;2.134;2022-12-05T09:16:27;35.17;;;23.70;;
70780;SDS011;59514;48.810;2.134;2022-12-05T09:18:54;33.53;;;23.13;;
70780;SDS011;59514;48.810;2.134;2022-12-05T09:21:21;35.15;;;23.83;;
70780;SDS011;59514;48.810;2.134;2022-12-05T09:23:48;33.38;;;24.45;;
70780;SDS011;59514;48.810;2.134;2022-12-05T09:26:15;30.77;;;22.27;;
70780;SDS011;59514;48.810;2.134;2022-12-05T09:28:42;34.45;;;22.85;;
70780;SDS011;59514;48.810;2.134;2022-12-05T09:31:18;30.85;;;22.25;;
70780;SDS011;59514;48.810;2.134;2022-12-05T09:33:46;29.92;;;21.85;;
70780;SDS011;59514;48.810;2.134;2022-12-05T09:36:17;31.10;;;21.95;;
70780;SDS011;59514;48.810;2.134;2022-12-05T09:38:44;30.13;;;22.02;;
70780;SDS011;59514;48.810;2.134;2022-12-05T09:47:10;28.98;;;21.13;;
70780;SDS011;59514;48.810;2.134;2022-12-05T09:49:53;30.40;;;21.58;;
70780;SDS011;59514;48.810;2.134;2022-12-05T09:52:24;31.15;;;21.98;;
70780;SDS011;59514;48.810;2.134;2022-12-05T09:57:23;29.60;;;21.67;;
70780;SDS011;59514;48.810;2.134;2022-12-05T09:59:56;29.80;;;21.13;;
70780;SDS011;59514;48.810;2.134;2022-12-05T10:02:26;30.85;;;21.88;;
70780;SDS011;59514;48.810;2.134;2022-12-05T10:05:01;31.70;;;22.92;;
70780;SDS011;59514;48.810;2.134;2022-12-05T10:07:40;31.40;;;22.42;;
70780;SDS011;59514;48.810;2.134;2022-12-05T10:16:16;32.60;;;23.30;;
70780;SDS011;59514;48.810;2.134;2022-12-05T10:18:54;33.05;;;22.80;;
70780;SDS011;59514;48.810;2.134;2022-12-05T10:21:29;31.00;;;23.33;;
70780;SDS011;59514;48.810;2.134;2022-12-05T10:24:03;34.35;;;22.65;;
70780;SDS011;59514;48.810;2.134;2022-12-05T10:26:37;31.95;;;22.27;;
70780;SDS011;59514;48.810;2.134;2022-12-05T10:31:41;30.67;;;21.80;;
70780;SDS011;59514;48.810;2.134;2022-12-05T10:34:11;29.67;;;21.52;;
70780;SDS011;59514;48.810;2.134;2022-12-05T10:37:16;31.80;;;22.85;;
70780;SDS011;59514;48.810;2.134;2022-12-05T10:39:44;31.65;;;23.33;;
70780;SDS011;59514;48.810;2.134;2022-12-05T10:42:12;32.97;;;23.63;;
70780;SDS011;59514;48.810;2.134;2022-12-05T10:44:41;31.45;;;23.80;;
70780;SDS011;59514;48.810;2.134;2022-12-05T10:47:07;37.17;;;24.15;;
70780;SDS011;59514;48.810;2.134;2022-12-05T10:49:33;36.47;;;24.48;;
70780;SDS011;59514;48.810;2.134;2022-12-05T10:52:00;36.40;;;24.40;;
70780;SDS011;59514;48.810;2.134;2022-12-05T10:54:28;37.22;;;26.77;;
70780;SDS011;59514;48.810;2.134;2022-12-05T10:56:55;37.03;;;26.10;;
70780;SDS011;59514;48.810;2.134;2022-12-05T10:59:22;37.08;;;26.15;;
70780;SDS011;59514;48.810;2.134;2022-12-05T11:01:53;35.92;;;25.08;;
70780;SDS011;59514;48.810;2.134;2022-12-05T11:06:58;36.80;;;26.38;;
70780;SDS011;59514;48.810;2.134;2022-12-05T11:12:40;38.50;;;26.02;;
70780;SDS011;59514;48.810;2.134;2022-12-05T11:17:47;36.63;;;24.52;;
70780;SDS011;59514;48.810;2.134;2022-12-05T11:22:41;38.60;;;25.55;;
70780;SDS011;59514;48.810;2.134;2022-12-05T11:25:22;35.83;;;25.80;;
70780;SDS011;59514;48.810;2.134;2022-12-05T11:27:59;39.55;;;24.95;;
70780;SDS011;59514;48.810;2.134;2022-12-05T11:30:56;36.70;;;25.15;;
70780;SDS011;59514;48.810;2.134;2022-12-05T11:33:24;41.95;;;26.40;;
70780;SDS011;59514;48.810;2.134;2022-12-05T11:35:52;34.72;;;24.52;;
70780;SDS011;59514;48.810;2.134;2022-12-05T11:38:21;37.58;;;25.63;;
70780;SDS011;59514;48.810;2.134;2022-12-05T11:40:57;34.22;;;23.92;;
70780;SDS011;59514;48.810;2.134;2022-12-05T11:51:50;36.42;;;25.92;;
70780;SDS011;59514;48.810;2.134;2022-12-05T11:54:46;35.85;;;25.33;;
70780;SDS011;59514;48.810;2.134;2022-12-05T12:00:06;36.83;;;25.15;;
70780;SDS011;59514;48.810;2.134;2022-12-05T12:25:26;40.80;;;26.48;;
70780;SDS011;59514;48.810;2.134;2022-12-05T12:30:52;42.40;;;26.58;;
70780;SDS011;59514;48.810;2.134;2022-12-05T12:33:33;42.60;;;26.02;;
70780;SDS011;59514;48.810;2.134;2022-12-05T12:36:11;41.40;;;27.80;;
70780;SDS011;59514;48.810;2.134;2022-12-05T12:52:11;40.55;;;26.48;;
70780;SDS011;59514;48.810;2.134;2022-12-05T12:55:41;44.33;;;27.80;;
70780;SDS011;59514;48.810;2.134;2022-12-05T13:05:50;47.10;;;27.58;;
70780;SDS011;59514;48.810;2.134;2022-12-05T13:08:23;44.63;;;28.40;;
70780;SDS011;59514;48.810;2.134;2022-12-05T13:10:53;44.05;;;27.77;;
70780;SDS011;59514;48.810;2.134;2022-12-05T13:13:26;44.78;;;28.77;;
70780;SDS011;59514;48.810;2.134;2022-12-05T13:15:58;43.78;;;28.52;;
70780;SDS011;59514;48.810;2.134;2022-12-05T13:18:26;50.08;;;28.60;;
70780;SDS011;59514;48.810;2.134;2022-12-05T13:20:55;46.58;;;28.50;;
70780;SDS011;59514;48.810;2.134;2022-12-05T13:23:24;44.43;;;27.73;;
70780;SDS011;59514;48.810;2.134;2022-12-05T13:25:56;46.92;;;28.42;;
70780;SDS011;59514;48.810;2.134;2022-12-05T13:28:28;44.90;;;28.38;;
70780;SDS011;59514;48.810;2.134;2022-12-05T13:31:06;49.47;;;28.50;;
70780;SDS011;59514;48.810;2.134;2022-12-05T13:33:50;52.45;;;30.00;;
70780;SDS011;59514;48.810;2.134;2022-12-05T13:36:20;49.08;;;28.30;;
70780;SDS011;59514;48.810;2.134;2022-12-05T13:39:06;52.58;;;30.05;;
70780;SDS011;59514;48.810;2.134;2022-12-05T13:42:01;49.38;;;28.25;;
70780;SDS011;59514;48.810;2.134;2022-12-05T13:44:40;48.10;;;29.63;;
70780;SDS011;59514;48.810;2.134;2022-12-05T13:47:28;49.97;;;31.13;;
70780;SDS011;59514;48.810;2.134;2022-12-05T13:50:22;48.95;;;29.33;;
70780;SDS011;59514;48.810;2.134;2022-12-05T13:52:59;47.00;;;29.20;;
70780;SDS011;59514;48.810;2.134;2022-12-05T13:55:34;47.60;;;29.08;;
70780;SDS011;59514;48.810;2.134;2022-12-05T13:58:49;52.83;;;30.60;;
70780;SDS011;59514;48.810;2.134;2022-12-05T14:00:48;50.20;;;29.65;;
70780;SDS011;59514;48.810;2.134;2022-12-05T14:05:47;52.70;;;31.05;;
70780;SDS011;59514;48.810;2.134;2022-12-05T14:08:49;50.03;;;29.98;;
70780;SDS011;59514;48.810;2.134;2022-12-05T14:11:16;54.20;;;31.75;;
70780;SDS011;59514;48.810;2.134;2022-12-05T14:13:42;52.33;;;30.65;;
70780;SDS011;59514;48.810;2.134;2022-12-05T14:21:37;49.47;;;28.98;;
70780;SDS011;59514;48.810;2.134;2022-12-05T14:35:26;49.25;;;28.98;;
70780;SDS011;59514;48.810;2.134;2022-12-05T14:37:55;45.75;;;28.27;;
70780;SDS011;59514;48.810;2.134;2022-12-05T14:40:38;52.00;;;30.38;;
70780;SDS011;59514;48.810;2.134;2022-12-05T14:50:43;49.53;;;28.85;;
70780;SDS011;59514;48.810;2.134;2022-12-05T14:59:01;49.00;;;28.27;;
70780;SDS011;59514;48.810;2.134;2022-12-05T15:01:33;50.72;;;29.05;;
70780;SDS011;59514;48.810;2.134;2022-12-05T15:06:41;51.22;;;29.77;;
70780;SDS011;59514;48.810;2.134;2022-12-05T15:09:21;49.30;;;29.17;;
70780;SDS011;59514;48.810;2.134;2022-12-05T15:11:55;49.97;;;30.15;;
70780;SDS011;59514;48.810;2.134;2022-12-05T15:14:23;51.85;;;30.30;;
70780;SDS011;59514;48.810;2.134;2022-12-05T15:16:52;55.22;;;30.23;;
70780;SDS011;59514;48.810;2.134;2022-12-05T15:20:07;55.08;;;31.15;;
70780;SDS011;59514;48.810;2.134;2022-12-05T15:22:15;58.70;;;31.73;;
70780;SDS011;59514;48.810;2.134;2022-12-05T15:24:45;49.88;;;30.42;;
70780;SDS011;59514;48.810;2.134;2022-12-05T15:27:10;54.92;;;30.83;;
70780;SDS011;59514;48.810;2.134;2022-12-05T15:29:36;59.25;;;32.40;;
70780;SDS011;59514;48.810;2.134;2022-12-05T15:34:42;53.90;;;31.70;;
70780;SDS011;59514;48.810;2.134;2022-12-05T15:37:22;47.88;;;29.65;;
70780;SDS011;59514;48.810;2.134;2022-12-05T15:39:55;53.03;;;30.55;;
70780;SDS011;59514;48.810;2.134;2022-12-05T15:42:35;53.72;;;30.52;;
70780;SDS011;59514;48.810;2.134;2022-12-05T15:47:36;44.15;;;28.55;;
70780;SDS011;59514;48.810;2.134;2022-12-05T15:50:02;44.85;;;28.35;;
70780;SDS011;59514;48.810;2.134;2022-12-05T15:55:32;43.78;;;28.92;;
70780;SDS011;59514;48.810;2.134;2022-12-05T16:00:41;46.47;;;29.65;;
70780;SDS011;59514;48.810;2.134;2022-12-05T16:03:14;45.70;;;29.05;;
70780;SDS011;59514;48.810;2.134;2022-12-05T16:05:50;42.20;;;26.92;;
70780;SDS011;59514;48.810;2.134;2022-12-05T16:08:19;44.25;;;27.02;;
70780;SDS011;59514;48.810;2.134;2022-12-05T16:10:48;40.35;;;25.48;;
70780;SDS011;59514;48.810;2.134;2022-12-05T16:13:14;43.67;;;27.73;;
70780;SDS011;59514;48.810;2.134;2022-12-05T16:15:42;43.53;;;26.40;;
70780;SDS011;59514;48.810;2.134;2022-12-05T16:18:21;37.55;;;25.77;;
70780;SDS011;59514;48.810;2.134;2022-12-05T16:20:49;41.60;;;27.13;;
70780;SDS011;59514;48.810;2.134;2022-12-05T16:23:25;40.28;;;26.52;;
70780;SDS011;59514;48.810;2.134;2022-12-05T16:28:36;37.72;;;25.17;;
70780;SDS011;59514;48.810;2.134;2022-12-05T16:31:02;38.63;;;25.92;;
70780;SDS011;59514;48.810;2.134;2022-12-05T16:33:29;37.15;;;25.13;;
70780;SDS011;59514;48.810;2.134;2022-12-05T16:36:06;39.03;;;26.05;;
70780;SDS011;59514;48.810;2.134;2022-12-05T16:38:32;36.97;;;25.35;;
70780;SDS011;59514;48.810;2.134;2022-12-05T16:40:58;36.60;;;24.63;;
70780;SDS011;59514;48.810;2.134;2022-12-05T16:48:42;32.97;;;22.60;;
70780;SDS011;59514;48.810;2.134;2022-12-05T16:53:37;30.40;;;20.88;;
70780;SDS011;59514;48.810;2.134;2022-12-05T16:56:04;30.65;;;22.63;;
70780;SDS011;59514;48.810;2.134;2022-12-05T16:58:33;31.45;;;22.10;;
70780;SDS011;59514;48.810;2.134;2022-12-05T17:01:00;30.80;;;21.60;;
70780;SDS011;59514;48.810;2.134;2022-12-05T17:03:28;28.40;;;21.38;;
70780;SDS011;59514;48.810;2.134;2022-12-05T17:05:54;31.70;;;22.25;;
70780;SDS011;59514;48.810;2.134;2022-12-05T17:08:20;35.05;;;22.52;;
70780;SDS011;59514;48.810;2.134;2022-12-05T17:10:45;31.13;;;21.63;;
70780;SDS011;59514;48.810;2.134;2022-12-05T17:13:14;28.38;;;20.60;;
70780;SDS011;59514;48.810;2.134;2022-12-05T17:15:41;31.10;;;21.33;;
70780;SDS011;59514;48.810;2.134;2022-12-05T17:18:13;30.50;;;23.05;;
70780;SDS011;59514;48.810;2.134;2022-12-05T17:20:41;32.30;;;22.63;;
70780;SDS011;59514;48.810;2.134;2022-12-05T17:23:12;31.15;;;22.73;;
70780;SDS011;59514;48.810;2.134;2022-12-05T17:25:38;34.72;;;23.65;;
70780;SDS011;59514;48.810;2.134;2022-12-05T17:28:08;32.28;;;22.40;;
70780;SDS011;59514;48.810;2.134;2022-12-05T17:30:33;30.33;;;23.55;;
70780;SDS011;59514;48.810;2.134;2022-12-05T17:32:59;31.05;;;22.13;;
70780;SDS011;59514;48.810;2.134;2022-12-05T17:35:26;30.90;;;22.08;;
70780;SDS011;59514;48.810;2.134;2022-12-05T17:37:52;32.38;;;20.98;;